createdAt,value
2023-03-06T00:00:42.644Z,5.80
2023-03-06T00:03:09.344Z,7.17
2023-03-06T00:05:36.327Z,8.53
2023-03-06T00:08:03.604Z,6.90
2023-03-06T00:10:31.342Z,7.30
2023-03-06T00:13:00.381Z,6.00
2023-03-06T00:15:27.965Z,5.90
2023-03-06T00:17:55.030Z,5.53
2023-03-06T00:20:22.330Z,5.63
2023-03-06T00:22:49.624Z,6.00
2023-03-06T00:25:19.034Z,5.57
2023-03-06T00:27:45.843Z,5.03
2023-03-06T00:30:16.275Z,5.87
2023-03-06T00:32:43.710Z,5.10
2023-03-06T00:35:10.922Z,6.23
2023-03-06T00:37:37.863Z,4.43
2023-03-06T00:40:11.258Z,4.57
2023-03-06T00:42:38.098Z,4.63
2023-03-06T00:45:06.205Z,5.73
2023-03-06T00:47:33.125Z,5.97
2023-03-06T00:49:59.992Z,5.20
2023-03-06T00:52:26.760Z,6.30
2023-03-06T00:54:53.512Z,6.07
2023-03-06T00:57:20.384Z,6.17
2023-03-06T00:59:47.122Z,4.67
2023-03-06T01:02:14.352Z,5.70
2023-03-06T01:04:41.360Z,6.40
2023-03-06T01:07:08.203Z,5.77
2023-03-06T01:09:35.030Z,6.40
2023-03-06T01:12:01.879Z,5.40
2023-03-06T01:14:28.617Z,6.47
2023-03-06T01:16:55.446Z,6.83
2023-03-06T01:19:22.203Z,4.70
2023-03-06T01:21:49.005Z,4.73
2023-03-06T01:24:15.776Z,5.20
2023-03-06T01:26:42.576Z,5.57
2023-03-06T01:29:09.354Z,5.30
2023-03-06T01:31:36.260Z,7.70
2023-03-06T01:34:03.096Z,7.37
2023-03-06T01:36:29.901Z,6.60
2023-03-06T01:38:56.605Z,6.73
2023-03-06T01:41:23.319Z,5.67
2023-03-06T01:43:50.515Z,4.93
2023-03-06T01:46:23.091Z,4.63
2023-03-06T01:48:54.487Z,5.70
2023-03-06T01:51:22.372Z,5.93
2023-03-06T01:53:50.770Z,4.93
2023-03-06T01:56:17.854Z,5.13
2023-03-06T01:58:44.776Z,5.13
2023-03-06T02:01:13.377Z,6.23
2023-03-06T02:03:40.863Z,5.93
2023-03-06T02:06:08.011Z,4.70
2023-03-06T02:08:34.860Z,6.20
2023-03-06T02:11:08.948Z,5.93
2023-03-06T02:13:36.736Z,6.50
2023-03-06T02:16:03.952Z,5.63
2023-03-06T02:18:31.826Z,7.10
2023-03-06T02:21:01.088Z,7.37
2023-03-06T02:23:37.015Z,6.80
2023-03-06T02:26:04.580Z,6.70
2023-03-06T02:28:31.537Z,6.20
2023-03-06T02:30:58.346Z,6.53
2023-03-06T02:33:27.362Z,6.70
2023-03-06T02:35:55.777Z,5.10
2023-03-06T02:38:27.071Z,4.73
2023-03-06T02:40:54.120Z,5.40
2023-03-06T02:43:28.559Z,4.80
2023-03-06T02:45:55.445Z,5.07
2023-03-06T02:48:22.235Z,6.57
2023-03-06T02:50:49.421Z,5.57
2023-03-06T02:53:18.385Z,5.90
2023-03-06T02:55:45.560Z,5.00
2023-03-06T02:58:12.603Z,5.40
2023-03-06T03:00:40.157Z,6.43
2023-03-06T03:03:07.845Z,6.63
2023-03-06T03:05:34.632Z,6.03
2023-03-06T03:08:01.294Z,5.57
2023-03-06T03:10:28.159Z,6.33
2023-03-06T03:12:54.899Z,5.40
2023-03-06T03:15:21.727Z,5.60
2023-03-06T03:17:48.497Z,5.53
2023-03-06T03:20:18.810Z,6.23
2023-03-06T03:23:03.836Z,5.80
2023-03-06T03:25:30.597Z,4.90
2023-03-06T03:27:57.323Z,6.07
2023-03-06T03:30:24.173Z,6.47
2023-03-06T03:32:50.900Z,5.90
2023-03-06T03:35:17.771Z,5.77
2023-03-06T03:37:45.045Z,6.10
2023-03-06T03:40:12.392Z,5.43
2023-03-06T03:42:39.397Z,6.23
2023-03-06T03:45:06.682Z,4.73
2023-03-06T03:47:33.382Z,5.80
2023-03-06T03:50:00.128Z,6.47
2023-03-06T03:52:26.934Z,5.40
2023-03-06T03:54:53.722Z,6.50
2023-03-06T03:57:20.385Z,7.03
2023-03-06T03:59:47.091Z,5.57
2023-03-06T04:02:13.855Z,5.97
2023-03-06T04:04:40.913Z,6.60
2023-03-06T04:07:07.702Z,5.53
2023-03-06T04:09:34.428Z,7.00
2023-03-06T04:12:01.239Z,5.87
2023-03-06T04:14:27.946Z,4.90
2023-03-06T04:16:54.709Z,5.90
2023-03-06T04:19:21.574Z,6.87
2023-03-06T04:21:48.471Z,6.13
2023-03-06T04:24:15.169Z,6.60
2023-03-06T04:26:42.004Z,6.40
2023-03-06T04:29:08.902Z,7.37
2023-03-06T04:31:35.752Z,6.13
2023-03-06T04:34:02.528Z,7.37
2023-03-06T04:36:31.784Z,6.27
2023-03-06T04:38:59.515Z,6.93
2023-03-06T04:41:26.349Z,7.10
2023-03-06T04:43:53.512Z,6.37
2023-03-06T04:46:20.389Z,7.23
2023-03-06T04:48:47.154Z,7.47
2023-03-06T04:51:14.751Z,6.53
2023-03-06T04:53:41.545Z,6.40
2023-03-06T04:56:08.501Z,7.53
2023-03-06T04:58:35.290Z,7.40
2023-03-06T05:01:02.165Z,7.37
2023-03-06T05:03:28.857Z,7.73
2023-03-06T05:05:55.728Z,8.40
2023-03-06T05:08:23.799Z,7.27
2023-03-06T05:10:56.489Z,9.23
2023-03-06T05:13:23.802Z,9.10
2023-03-06T05:15:50.569Z,8.87
2023-03-06T05:18:17.518Z,9.23
2023-03-06T05:20:44.376Z,9.07
2023-03-06T05:23:10.995Z,8.33
2023-03-06T05:25:40.792Z,6.50
2023-03-06T05:28:07.965Z,6.40
2023-03-06T05:30:35.210Z,7.20
2023-03-06T05:33:01.812Z,6.23
2023-03-06T05:35:28.528Z,7.43
2023-03-06T05:37:55.268Z,6.87
2023-03-06T05:40:22.386Z,6.37
2023-03-06T05:42:49.091Z,7.40
2023-03-06T05:45:15.916Z,7.10
2023-03-06T05:47:42.640Z,7.60
2023-03-06T05:50:10.641Z,8.77
2023-03-06T05:52:39.597Z,8.03
2023-03-06T05:55:07.038Z,8.40
2023-03-06T05:57:33.810Z,7.67
2023-03-06T06:00:00.563Z,7.47
2023-03-06T06:02:27.318Z,9.50
2023-03-06T06:04:54.101Z,7.03
2023-03-06T06:07:20.828Z,8.30
2023-03-06T06:09:47.577Z,5.53
2023-03-06T06:12:14.347Z,7.50
2023-03-06T06:14:41.159Z,7.40
2023-03-06T06:17:08.167Z,7.33
2023-03-06T06:19:35.337Z,7.00
2023-03-06T06:22:03.868Z,7.93
2023-03-06T06:24:31.987Z,7.63
2023-03-06T06:26:59.691Z,7.20
2023-03-06T06:29:28.478Z,6.83
2023-03-06T06:31:55.859Z,8.50
2023-03-06T06:34:23.077Z,7.63
2023-03-06T06:36:53.222Z,7.03
2023-03-06T06:39:21.889Z,7.70
2023-03-06T06:42:05.544Z,6.80
2023-03-06T06:44:37.437Z,6.17
2023-03-06T06:47:24.192Z,6.87
2023-03-06T06:49:53.237Z,7.47
2023-03-06T06:52:20.215Z,7.20
2023-03-06T06:54:47.081Z,8.70
2023-03-06T06:57:13.849Z,6.77
2023-03-06T06:59:40.599Z,8.17
2023-03-06T07:02:07.423Z,7.30
2023-03-06T07:04:34.368Z,7.60
2023-03-06T07:07:01.339Z,7.70
2023-03-06T07:09:30.588Z,8.03
2023-03-06T07:11:57.795Z,8.00
2023-03-06T07:14:25.499Z,7.00
2023-03-06T07:16:52.250Z,7.53
2023-03-06T07:19:19.083Z,7.50
2023-03-06T07:21:45.837Z,8.80
2023-03-06T07:24:12.648Z,7.83
2023-03-06T07:26:39.501Z,12.87
2023-03-06T07:29:06.330Z,9.53
2023-03-06T07:31:33.126Z,12.07
2023-03-06T07:34:00.224Z,12.13
2023-03-06T07:36:27.519Z,13.50
2023-03-06T07:38:54.362Z,13.33
2023-03-06T07:41:22.632Z,11.97
2023-03-06T07:43:50.414Z,10.77
2023-03-06T07:46:17.554Z,10.00
2023-03-06T07:48:44.820Z,10.97
2023-03-06T07:51:16.714Z,12.03
2023-03-06T07:53:43.750Z,10.87
2023-03-06T07:56:11.928Z,10.77
2023-03-06T07:58:41.082Z,11.13
2023-03-06T08:01:16.836Z,12.07
2023-03-06T08:03:44.133Z,10.33
2023-03-06T08:06:13.122Z,10.50
2023-03-06T08:08:41.846Z,11.03
2023-03-06T08:11:10.042Z,11.17
2023-03-06T08:13:37.322Z,9.63
2023-03-06T08:16:04.556Z,11.70
2023-03-06T08:18:31.532Z,11.80
2023-03-06T08:21:15.168Z,10.27
2023-03-06T08:23:43.158Z,8.80
2023-03-06T08:26:18.953Z,9.73
2023-03-06T08:28:46.252Z,9.80
2023-03-06T08:31:29.838Z,10.13
2023-03-06T08:33:58.452Z,11.27
2023-03-06T08:36:25.520Z,9.50
2023-03-06T08:38:52.750Z,10.07
2023-03-06T08:41:20.373Z,10.70
2023-03-06T08:43:47.742Z,9.63
2023-03-06T08:46:14.540Z,10.53
2023-03-06T08:48:41.280Z,10.53
2023-03-06T08:51:12.430Z,10.43
2023-03-06T08:53:44.052Z,11.20
2023-03-06T08:56:32.338Z,8.90
2023-03-06T08:59:00.889Z,10.80
2023-03-06T09:01:30.187Z,10.90
2023-03-06T09:03:59.825Z,12.40
2023-03-06T09:06:27.434Z,10.50
2023-03-06T09:08:54.687Z,9.83
2023-03-06T09:11:22.828Z,9.77
2023-03-06T09:13:49.562Z,11.00
2023-03-06T09:16:16.409Z,10.83
2023-03-06T09:18:43.261Z,10.20
2023-03-06T09:21:10.200Z,11.47
2023-03-06T09:23:39.635Z,9.93
2023-03-06T09:26:07.725Z,10.23
2023-03-06T09:28:39.256Z,11.40
2023-03-06T09:31:13.106Z,10.63
2023-03-06T09:33:39.983Z,12.20
2023-03-06T09:36:15.967Z,10.70
2023-03-06T09:38:42.856Z,10.33
2023-03-06T09:41:23.716Z,9.63
2023-03-06T09:43:56.663Z,11.10
2023-03-06T09:46:46.702Z,17.10
2023-03-06T09:49:13.395Z,10.43
2023-03-06T09:51:51.509Z,10.43
2023-03-06T09:54:20.650Z,11.57
2023-03-06T09:56:49.923Z,9.60
2023-03-06T09:59:21.438Z,11.10
2023-03-06T10:02:01.862Z,12.70
2023-03-06T10:04:42.861Z,10.80
2023-03-06T10:07:20.978Z,9.70
2023-03-06T10:10:00.698Z,11.50
2023-03-06T10:12:31.014Z,10.17
2023-03-06T10:15:03.871Z,10.77
2023-03-06T10:17:41.658Z,11.73
2023-03-06T10:20:30.699Z,9.90
2023-03-06T10:23:28.548Z,11.27
2023-03-06T10:26:02.014Z,10.50
2023-03-06T10:28:33.802Z,9.87
2023-03-06T10:31:08.382Z,9.27
2023-03-06T10:33:59.756Z,11.73
2023-03-06T10:36:28.229Z,10.73
2023-03-06T10:38:57.357Z,10.57
2023-03-06T10:41:29.992Z,11.37
2023-03-06T10:43:59.692Z,9.97
2023-03-06T10:46:28.971Z,11.40
2023-03-06T10:49:04.242Z,10.10
2023-03-06T10:51:31.884Z,11.97
2023-03-06T10:54:19.444Z,10.53
2023-03-06T10:56:47.197Z,11.67
2023-03-06T10:59:19.598Z,11.47
2023-03-06T11:01:51.793Z,10.60
2023-03-06T11:04:26.621Z,10.77
2023-03-06T11:07:15.980Z,10.60
2023-03-06T11:09:58.509Z,12.10
2023-03-06T11:12:39.386Z,10.73
2023-03-06T11:15:15.268Z,9.57
2023-03-06T11:18:06.030Z,9.60
2023-03-06T11:20:51.554Z,11.23
2023-03-06T11:23:25.468Z,12.03
2023-03-06T11:25:56.296Z,11.73
2023-03-06T11:28:30.323Z,11.67
2023-03-06T11:31:10.979Z,10.93
2023-03-06T11:33:46.536Z,12.13
2023-03-06T11:36:16.280Z,11.30
2023-03-06T11:38:49.227Z,10.63
2023-03-06T11:41:34.436Z,10.57
2023-03-06T11:44:24.698Z,10.43
2023-03-06T11:46:58.386Z,10.57
2023-03-06T11:49:25.167Z,11.00
2023-03-06T11:52:04.900Z,9.63
2023-03-06T11:54:32.278Z,10.40
2023-03-06T11:57:02.664Z,10.73
2023-03-06T11:59:41.518Z,11.53
2023-03-06T12:02:26.534Z,10.00
2023-03-06T12:05:02.592Z,11.20
2023-03-06T12:07:34.587Z,10.90
2023-03-06T12:10:16.013Z,11.97
2023-03-06T12:13:27.392Z,10.07
2023-03-06T12:16:39.339Z,11.27
2023-03-06T12:19:24.523Z,10.93
2023-03-06T12:21:57.051Z,10.57
2023-03-06T12:24:42.511Z,10.33
2023-03-06T12:27:21.342Z,12.47
2023-03-06T12:29:53.878Z,11.07
2023-03-06T12:33:14.690Z,11.23
2023-03-06T12:35:53.347Z,11.67
2023-03-06T12:38:32.101Z,10.77
2023-03-06T12:41:02.203Z,13.50
2023-03-06T12:43:50.858Z,11.47
2023-03-06T12:46:23.903Z,10.73
2023-03-06T12:49:03.713Z,10.93
2023-03-06T12:51:31.703Z,13.00
2023-03-06T12:53:59.504Z,11.70
2023-03-06T12:56:26.794Z,10.07
2023-03-06T12:58:55.114Z,11.03
2023-03-06T13:01:51.789Z,10.70
2023-03-06T13:04:45.376Z,12.47
2023-03-06T13:07:36.873Z,10.93
2023-03-06T13:10:26.661Z,9.60
2023-03-06T13:13:15.985Z,10.27
2023-03-06T13:15:46.782Z,11.07
2023-03-06T13:18:22.649Z,10.77
2023-03-06T13:20:53.606Z,10.67
2023-03-06T13:23:29.609Z,9.57
2023-03-06T13:26:02.149Z,10.20
2023-03-06T13:28:47.781Z,11.47
2023-03-06T13:31:38.545Z,12.23
2023-03-06T13:34:06.701Z,10.60
2023-03-06T13:36:39.682Z,9.77
2023-03-06T13:39:10.816Z,11.27
2023-03-06T13:41:55.415Z,13.57
2023-03-06T13:44:25.320Z,9.73
2023-03-06T13:47:00.982Z,12.00
2023-03-06T13:49:27.929Z,10.47
2023-03-06T13:51:54.736Z,11.23
2023-03-06T13:54:44.677Z,11.20
2023-03-06T13:57:20.389Z,11.87
2023-03-06T14:00:11.645Z,10.10
2023-03-06T14:02:56.568Z,10.10
2023-03-06T14:05:23.948Z,10.67
2023-03-06T14:08:04.121Z,9.97
2023-03-06T14:10:34.575Z,9.43
2023-03-06T14:13:18.714Z,10.33
2023-03-06T14:15:49.241Z,10.00
2023-03-06T14:18:19.964Z,11.10
2023-03-06T14:20:52.635Z,11.97
2023-03-06T14:23:35.540Z,11.07
2023-03-06T14:26:15.360Z,12.60
2023-03-06T14:28:43.894Z,12.23
2023-03-06T14:31:22.905Z,11.83
2023-03-06T14:33:56.728Z,12.53
2023-03-06T14:36:32.316Z,11.97
2023-03-06T14:39:02.586Z,12.70
2023-03-06T14:41:32.190Z,11.47
2023-03-06T14:44:22.229Z,11.00
2023-03-06T14:46:55.137Z,10.17
2023-03-06T14:49:26.041Z,11.40
2023-03-06T14:51:55.454Z,11.00
2023-03-06T14:54:26.381Z,10.03
2023-03-06T14:57:06.183Z,10.60
2023-03-06T14:59:52.981Z,10.63
2023-03-06T15:02:22.469Z,11.77
2023-03-06T15:05:35.814Z,9.33
2023-03-06T15:08:04.621Z,10.37
2023-03-06T15:10:33.939Z,10.60
2023-03-06T15:13:20.789Z,10.20
2023-03-06T15:16:06.270Z,11.50
2023-03-06T15:18:38.936Z,11.50
2023-03-06T15:21:19.627Z,12.67
2023-03-06T15:23:48.667Z,11.57
2023-03-06T15:26:22.120Z,12.20
2023-03-06T15:29:10.017Z,12.07
2023-03-06T15:31:42.341Z,12.10
2023-03-06T15:34:11.839Z,13.23
2023-03-06T15:36:49.236Z,12.70
2023-03-06T15:39:46.669Z,18.07
2023-03-06T15:42:20.281Z,15.10
2023-03-06T15:44:49.269Z,14.10
2023-03-06T15:47:16.041Z,13.13
2023-03-06T15:49:43.084Z,12.67
2023-03-06T15:52:10.106Z,12.53
2023-03-06T15:54:37.065Z,13.83
2023-03-06T15:57:08.581Z,15.87
2023-03-06T15:59:41.663Z,11.83
2023-03-06T16:02:19.550Z,12.87
2023-03-06T16:04:46.866Z,12.83
2023-03-06T16:07:14.224Z,13.47
2023-03-06T16:09:42.251Z,13.53
2023-03-06T16:12:27.933Z,13.00
2023-03-06T16:15:01.776Z,12.37
2023-03-06T16:17:28.521Z,12.60
2023-03-06T16:19:55.291Z,14.27
2023-03-06T16:22:22.048Z,14.47
2023-03-06T16:24:49.597Z,15.33
2023-03-06T16:27:19.164Z,13.03
2023-03-06T16:29:45.937Z,12.87
2023-03-06T16:32:12.711Z,13.17
2023-03-06T16:34:39.525Z,13.07
2023-03-06T16:37:06.441Z,13.67
2023-03-06T16:39:33.773Z,14.57
2023-03-06T16:42:00.448Z,12.67
2023-03-06T16:44:27.189Z,12.97
2023-03-06T16:46:53.894Z,17.27
2023-03-06T16:49:23.057Z,15.67
2023-03-06T16:51:50.398Z,13.53
2023-03-06T16:54:17.199Z,14.23
2023-03-06T16:56:43.943Z,13.10
2023-03-06T16:59:11.567Z,12.70
2023-03-06T17:01:42.662Z,15.03
2023-03-06T17:04:09.584Z,22.30
2023-03-06T17:06:36.520Z,14.30
2023-03-06T17:09:04.137Z,12.77
2023-03-06T17:11:30.877Z,12.00
2023-03-06T17:13:57.646Z,15.03
2023-03-06T17:16:24.441Z,13.57
2023-03-06T17:18:52.621Z,12.80
2023-03-06T17:21:19.598Z,13.20
2023-03-06T17:23:46.431Z,14.90
2023-03-06T17:26:15.544Z,14.07
2023-03-06T17:28:42.525Z,13.90
2023-03-06T17:31:18.233Z,13.07
2023-03-06T17:33:45.118Z,11.33
2023-03-06T17:36:14.407Z,13.37
2023-03-06T17:38:41.908Z,11.53
2023-03-06T17:41:09.879Z,12.63
2023-03-06T17:43:37.444Z,11.77
2023-03-06T17:46:12.201Z,12.77
2023-03-06T17:48:39.937Z,11.67
2023-03-06T17:51:07.563Z,13.87
2023-03-06T17:53:34.421Z,13.80
2023-03-06T17:56:04.431Z,12.50
2023-03-06T17:58:32.702Z,13.87
2023-03-06T18:00:59.958Z,13.40
2023-03-06T18:03:27.093Z,13.37
2023-03-06T18:06:04.812Z,12.77
2023-03-06T18:08:32.318Z,10.93
2023-03-06T18:11:04.332Z,12.80
2023-03-06T18:13:34.823Z,13.47
2023-03-06T18:16:01.879Z,13.03
2023-03-06T18:18:29.457Z,13.07
2023-03-06T18:20:56.367Z,13.60
2023-03-06T18:23:23.562Z,12.50
2023-03-06T18:25:50.765Z,14.67
2023-03-06T18:28:18.063Z,13.20
2023-03-06T18:30:44.939Z,15.13
2023-03-06T18:33:11.664Z,13.10
2023-03-06T18:35:38.349Z,11.83
2023-03-06T18:38:05.304Z,13.77
2023-03-06T18:40:32.159Z,12.47
2023-03-06T18:42:58.908Z,12.97
2023-03-06T18:45:25.747Z,13.67
2023-03-06T18:47:52.668Z,12.83
2023-03-06T18:50:19.435Z,13.90
2023-03-06T18:52:46.394Z,14.87
2023-03-06T18:55:13.116Z,13.53
2023-03-06T18:57:40.043Z,13.20
2023-03-06T19:00:07.389Z,13.17
2023-03-06T19:02:34.074Z,12.30
2023-03-06T19:05:00.793Z,14.03
2023-03-06T19:07:27.569Z,14.33
2023-03-06T19:09:54.351Z,12.27
2023-03-06T19:12:21.147Z,12.07
2023-03-06T19:14:48.017Z,12.27
2023-03-06T19:17:14.742Z,13.07
2023-03-06T19:19:41.560Z,12.97
2023-03-06T19:22:08.978Z,12.50
2023-03-06T19:24:35.639Z,12.50
2023-03-06T19:27:02.348Z,13.27
2023-03-06T19:29:29.322Z,12.97
2023-03-06T19:31:57.339Z,14.90
2023-03-06T19:34:24.207Z,14.43
2023-03-06T19:36:51.502Z,17.60
2023-03-06T19:39:18.315Z,14.40
2023-03-06T19:41:47.103Z,15.47
2023-03-06T19:44:14.674Z,15.43
2023-03-06T19:46:41.577Z,13.27
2023-03-06T19:49:12.211Z,13.60
2023-03-06T19:51:39.028Z,12.33
2023-03-06T19:54:05.976Z,12.80
2023-03-06T19:56:34.066Z,11.30
2023-03-06T19:59:00.912Z,12.67
2023-03-06T20:01:28.266Z,13.83
2023-03-06T20:03:59.432Z,12.00
2023-03-06T20:06:28.915Z,11.90
2023-03-06T20:08:56.275Z,13.33
2023-03-06T20:11:25.875Z,12.93
2023-03-06T20:13:53.074Z,12.77
2023-03-06T20:16:20.401Z,12.77
2023-03-06T20:18:47.131Z,13.50
2023-03-06T20:21:14.574Z,12.70
2023-03-06T20:23:41.910Z,12.43
2023-03-06T20:26:12.144Z,10.63
2023-03-06T20:28:39.541Z,12.20
2023-03-06T20:31:11.242Z,13.10
2023-03-06T20:33:38.040Z,14.30
2023-03-06T20:36:05.391Z,14.03
2023-03-06T20:38:32.230Z,13.57
2023-03-06T20:40:59.781Z,13.97
2023-03-06T20:43:26.576Z,14.00
2023-03-06T20:46:01.545Z,14.40
2023-03-06T20:48:29.263Z,14.33
2023-03-06T20:51:01.011Z,14.50
2023-03-06T20:53:28.117Z,15.77
2023-03-06T20:55:55.025Z,13.00
2023-03-06T20:58:23.457Z,14.40
2023-03-06T21:00:50.056Z,12.20
2023-03-06T21:03:16.673Z,14.30
2023-03-06T21:05:46.136Z,12.80
2023-03-06T21:08:12.723Z,13.87
2023-03-06T21:10:39.376Z,11.43
2023-03-06T21:13:06.099Z,12.10
2023-03-06T21:15:32.850Z,12.50
2023-03-06T21:17:59.447Z,11.17
2023-03-06T21:20:26.145Z,10.20
2023-03-06T21:22:52.787Z,10.27
2023-03-06T21:25:19.484Z,10.20
2023-03-06T21:27:46.582Z,13.40
2023-03-06T21:30:13.517Z,11.23
2023-03-06T21:32:40.960Z,11.20
2023-03-06T21:35:07.742Z,11.50
2023-03-06T21:37:34.314Z,11.27
2023-03-06T21:40:01.040Z,13.17
2023-03-06T21:42:27.698Z,11.03
2023-03-06T21:44:54.288Z,11.77
2023-03-06T21:47:20.921Z,11.87
2023-03-06T21:49:48.945Z,10.73
2023-03-06T21:52:15.589Z,11.53
2023-03-06T21:54:42.295Z,13.17
2023-03-06T21:57:08.935Z,11.73
2023-03-06T21:59:36.502Z,12.83
2023-03-06T22:02:03.198Z,11.90
2023-03-06T22:04:29.813Z,13.10
2023-03-06T22:06:56.495Z,11.37
2023-03-06T22:09:23.222Z,10.77
2023-03-06T22:11:49.769Z,12.07
2023-03-06T22:14:16.367Z,11.30
2023-03-06T22:16:42.982Z,11.30
2023-03-06T22:19:09.671Z,13.37
2023-03-06T22:21:36.371Z,11.17
2023-03-06T22:24:03.205Z,14.23
2023-03-06T22:26:29.970Z,12.37
2023-03-06T22:28:56.617Z,11.97
2023-03-06T22:31:25.819Z,11.90
2023-03-06T22:33:53.618Z,11.90
2023-03-06T22:36:22.286Z,9.90
2023-03-06T22:38:49.383Z,10.50
2023-03-06T22:41:17.615Z,12.30
2023-03-06T22:43:44.237Z,11.50
2023-03-06T22:46:13.942Z,13.10
2023-03-06T22:48:41.067Z,12.60
2023-03-06T22:51:10.644Z,12.90
2023-03-06T22:53:38.021Z,13.67
2023-03-06T22:56:06.616Z,11.83
2023-03-06T22:58:40.416Z,15.93
2023-03-06T23:01:09.979Z,12.90
2023-03-06T23:03:38.678Z,12.07
2023-03-06T23:06:10.479Z,14.80
2023-03-06T23:08:37.436Z,13.63
2023-03-06T23:11:09.295Z,13.40
2023-03-06T23:13:36.863Z,10.60
2023-03-06T23:16:05.334Z,10.33
2023-03-06T23:18:32.357Z,10.60
2023-03-06T23:20:59.030Z,10.57
2023-03-06T23:23:26.570Z,11.43
2023-03-06T23:25:59.089Z,11.13
2023-03-06T23:28:26.302Z,11.90
2023-03-06T23:30:53.072Z,12.63
2023-03-06T23:33:19.710Z,11.30
2023-03-06T23:35:46.755Z,9.47
2023-03-06T23:38:13.924Z,11.27
2023-03-06T23:40:40.537Z,11.50
2023-03-06T23:43:07.237Z,12.57
2023-03-06T23:45:33.917Z,11.13
2023-03-06T23:48:00.471Z,12.80
2023-03-06T23:50:27.121Z,12.23
2023-03-06T23:52:54.649Z,11.73
2023-03-06T23:55:21.479Z,9.80
2023-03-06T23:57:48.064Z,11.93
